Time;durP1;ratioP1;P1;durP2;ratioP2;P2;SDS_P1;SDS_P2;PMS_P1;PMS_P2;Temp;Humidity;BMP_temperature;BMP_pressure;BME280_temperature;BME280_humidity;BME280_pressure;Samples;Min_cycle;Max_cycle;Signal;HPM_P1;HPM_P2
2021/05/30 00:02:21;;;;;;;;;;;;;;;26.00;39.21;100654.56;5055795;28;967;-29
2021/05/30 00:04:46;;;;;;;;;;;;;;;26.03;39.15;100658.75;5038864;28;788;-30
2021/05/30 00:07:12;;;;;;;;;;;;;;;25.99;39.29;100652.88;5056153;28;828;-29
2021/05/30 00:09:43;;;;;;;;;;;;;;;26.08;38.98;100650.97;5037847;28;1099;-29
2021/05/30 00:12:09;;;;;;;;;;;;;;;26.03;38.98;100648.81;5055284;28;1215;-29
2021/05/30 00:14:34;;;;;;;;;;;;;;;26.01;39.32;100648.16;5055992;28;1981;-29
2021/05/30 00:16:59;;;;;;;;;;;;;;;26.10;38.98;100643.56;5054422;28;966;-29
2021/05/30 00:19:25;;;;;;;;;;;;;;;26.08;39.17;100647.41;5059784;28;898;-29
2021/05/30 00:21:50;;;;;;;;;;;;;;;26.11;38.96;100636.31;5059695;28;741;-29
2021/05/30 00:24:15;;;;;;;;;;;;;;;26.11;38.78;100642.53;5060177;28;875;-29
2021/05/30 00:26:41;;;;;;;;;;;;;;;26.10;38.98;100640.00;5059604;28;788;-30
2021/05/30 00:29:06;;;;;;;;;;;;;;;26.14;39.04;100633.25;5059623;28;803;-29
2021/05/30 00:31:31;;;;;;;;;;;;;;;26.17;38.96;100627.50;5059817;28;1061;-29
2021/05/30 00:33:57;;;;;;;;;;;;;;;26.13;38.86;100631.56;5058648;28;1893;-29
2021/05/30 00:36:24;;;;;;;;;;;;;;;26.16;38.71;100633.88;5059518;28;815;-29
2021/05/30 00:38:49;;;;;;;;;;;;;;;26.14;38.50;100631.38;5059996;28;767;-29
2021/05/30 00:41:15;;;;;;;;;;;;;;;26.12;38.60;100627.19;5059372;28;764;-29
2021/05/30 00:43:44;;;;;;;;;;;;;;;26.13;38.49;100620.78;5059680;28;751;-29
2021/05/30 00:46:09;;;;;;;;;;;;;;;26.15;38.64;100627.69;5059540;28;776;-29
2021/05/30 00:48:37;;;;;;;;;;;;;;;26.20;38.50;100623.59;5058895;28;1033;-29
2021/05/30 00:51:03;;;;;;;;;;;;;;;26.21;38.27;100618.00;5058944;28;858;-29
2021/05/30 00:53:31;;;;;;;;;;;;;;;26.20;38.21;100613.66;5059019;28;840;-29
2021/05/30 00:55:57;;;;;;;;;;;;;;;26.15;38.30;100616.91;5058734;28;847;-29
2021/05/30 00:58:22;;;;;;;;;;;;;;;26.17;38.03;100614.03;5058947;28;865;-29
2021/05/30 01:00:50;;;;;;;;;;;;;;;26.23;38.06;100609.75;5059366;28;826;-29
2021/05/30 01:03:18;;;;;;;;;;;;;;;26.20;37.71;100610.97;5058224;28;979;-29
2021/05/30 01:05:45;;;;;;;;;;;;;;;26.24;37.75;100616.84;5059111;28;771;-29
2021/05/30 01:08:11;;;;;;;;;;;;;;;26.23;37.78;100616.00;5041125;28;807;-29
2021/05/30 01:10:36;;;;;;;;;;;;;;;26.26;37.81;100623.72;5041096;28;1184;-29
2021/05/30 01:13:02;;;;;;;;;;;;;;;26.18;37.71;100623.78;5050064;28;1148;-29
2021/05/30 01:15:28;;;;;;;;;;;;;;;26.21;37.98;100614.50;5058764;28;1913;-29
2021/05/30 01:17:53;;;;;;;;;;;;;;;26.20;37.66;100613.66;5056703;28;966;-29
2021/05/30 01:20:19;;;;;;;;;;;;;;;26.25;37.51;100618.50;5059131;28;747;-29
2021/05/30 01:22:44;;;;;;;;;;;;;;;26.26;37.72;100614.78;5058897;28;776;-29
2021/05/30 01:25:10;;;;;;;;;;;;;;;26.19;37.83;100617.38;5040601;28;1527;-29
2021/05/30 01:27:35;;;;;;;;;;;;;;;26.21;37.68;100609.94;5058770;28;811;-29
2021/05/30 01:30:01;;;;;;;;;;;;;;;26.24;37.81;100617.66;5058653;28;808;-29
2021/05/30 01:32:26;;;;;;;;;;;;;;;26.18;37.78;100618.38;5058139;28;951;-30
2021/05/30 01:34:51;;;;;;;;;;;;;;;26.22;37.77;100616.16;5057846;28;1914;-29
2021/05/30 01:37:16;;;;;;;;;;;;;;;26.27;37.58;100613.78;5058259;28;776;-29
2021/05/30 01:39:42;;;;;;;;;;;;;;;26.20;37.84;100619.03;5058215;28;970;-29
2021/05/30 01:42:07;;;;;;;;;;;;;;;26.25;37.80;100616.66;5057664;28;816;-29
2021/05/30 01:44:32;;;;;;;;;;;;;;;26.18;37.92;100618.38;5058841;28;811;-29
2021/05/30 01:46:58;;;;;;;;;;;;;;;26.23;37.90;100620.53;5057656;28;943;-29
2021/05/30 01:49:23;;;;;;;;;;;;;;;26.23;37.77;100610.59;5058189;28;756;-29
2021/05/30 01:51:48;;;;;;;;;;;;;;;26.27;37.81;100622.72;5058309;28;820;-29
2021/05/30 01:54:16;;;;;;;;;;;;;;;26.21;37.86;100618.00;5058041;28;1959;-29
2021/05/30 01:56:57;;;;;;;;;;;;;;;26.31;37.62;100616.94;5057865;28;869;-29
2021/05/30 01:59:23;;;;;;;;;;;;;;;26.22;37.85;100618.88;5058513;28;768;-29
2021/05/30 02:01:52;;;;;;;;;;;;;;;26.26;37.86;100615.63;5057128;28;1455;-29
2021/05/30 02:04:17;;;;;;;;;;;;;;;26.23;37.97;100620.53;5039958;28;780;-29
2021/05/30 02:06:43;;;;;;;;;;;;;;;26.26;38.11;100622.84;5040235;28;827;-29
2021/05/30 02:09:08;;;;;;;;;;;;;;;26.22;37.88;100618.88;5057853;28;779;-29
2021/05/30 02:11:34;;;;;;;;;;;;;;;26.18;38.07;100623.78;5057330;28;1124;-29
2021/05/30 02:13:59;;;;;;;;;;;;;;;26.23;38.01;100625.91;5057599;28;1986;-30
2021/05/30 02:16:24;;;;;;;;;;;;;;;26.24;38.05;100622.22;5057657;28;847;-29
2021/05/30 02:18:50;;;;;;;;;;;;;;;26.28;38.15;100615.44;5039500;28;1254;-29
2021/05/30 02:21:15;;;;;;;;;;;;;;;26.26;37.95;100614.78;5057851;28;816;-29
2021/05/30 02:23:40;;;;;;;;;;;;;;;26.24;37.83;100620.34;5057458;28;768;-28
2021/05/30 02:26:05;;;;;;;;;;;;;;;26.22;38.00;100613.47;5056977;28;1443;-28
2021/05/30 02:28:31;;;;;;;;;;;;;;;26.25;38.01;100611.25;5057711;28;802;-29
2021/05/30 02:30:56;;;;;;;;;;;;;;;26.22;38.07;100619.72;5039521;28;846;-29
2021/05/30 02:33:21;;;;;;;;;;;;;;;26.25;37.53;100619.34;5056688;28;959;-29
2021/05/30 02:35:47;;;;;;;;;;;;;;;26.26;37.62;100617.47;5057538;28;1894;-29
2021/05/30 02:38:12;;;;;;;;;;;;;;;26.21;37.91;100625.28;5057089;28;752;-29
2021/05/30 02:40:38;;;;;;;;;;;;;;;26.26;37.64;100621.00;5056764;28;763;-29
2021/05/30 02:43:03;;;;;;;;;;;;;;;26.23;37.75;100624.06;5057374;28;739;-29
2021/05/30 02:45:28;;;;;;;;;;;;;;;26.24;37.64;100623.03;5057095;28;728;-29
2021/05/30 02:47:54;;;;;;;;;;;;;;;26.23;37.48;100626.78;5056291;28;956;-30
2021/05/30 02:50:19;;;;;;;;;;;;;;;26.26;37.37;100625.56;5057137;28;808;-29
2021/05/30 02:52:44;;;;;;;;;;;;;;;26.23;37.60;100626.78;5056879;28;739;-29
2021/05/30 02:55:10;;;;;;;;;;;;;;;26.23;37.52;100620.53;5057109;28;1902;-29
2021/05/30 02:57:35;;;;;;;;;;;;;;;26.20;37.62;100624.44;5057192;28;784;-29
2021/05/30 03:00:00;;;;;;;;;;;;;;;26.17;37.99;100628.31;5056498;28;835;-29
2021/05/30 03:02:26;;;;;;;;;;;;;;;26.23;37.59;100624.06;5056252;28;931;-29
2021/05/30 03:04:51;;;;;;;;;;;;;;;26.24;37.76;100620.34;5056979;28;791;-30
2021/05/30 03:07:16;;;;;;;;;;;;;;;26.34;37.59;100624.72;5056810;28;786;-29
2021/05/30 03:09:41;;;;;;;;;;;;;;;26.31;37.62;100625.84;5056580;28;851;-30
2021/05/30 03:12:07;;;;;;;;;;;;;;;26.34;37.11;100622.81;5056577;28;1092;-30
2021/05/30 03:14:32;;;;;;;;;;;;;;;26.35;36.39;100634.47;5056569;28;1989;-30
2021/05/30 03:16:57;;;;;;;;;;;;;;;26.30;36.33;100632.28;5054195;28;876;-30
2021/05/30 03:19:23;;;;;;;;;;;;;;;26.32;36.02;100634.78;5056541;28;827;-30
2021/05/30 03:21:48;;;;;;;;;;;;;;;26.35;35.74;100629.06;5056436;28;822;-30
2021/05/30 03:24:13;;;;;;;;;;;;;;;26.28;35.68;100623.53;5056426;28;779;-29
2021/05/30 03:26:39;;;;;;;;;;;;;;;26.24;35.65;100633.00;5056864;28;814;-30
2021/05/30 03:29:04;;;;;;;;;;;;;;;26.23;35.44;100631.31;5056151;28;828;-30
2021/05/30 03:31:29;;;;;;;;;;;;;;;26.22;35.61;100633.19;5056403;28;836;-30
2021/05/30 03:33:55;;;;;;;;;;;;;;;26.20;35.63;100635.22;5056053;28;1898;-30
2021/05/30 03:36:24;;;;;;;;;;;;;;;26.20;35.43;100631.69;5056438;28;903;-30
2021/05/30 03:38:50;;;;;;;;;;;;;;;26.21;35.18;100636.06;5055946;28;809;-30
2021/05/30 03:41:19;;;;;;;;;;;;;;;26.17;35.43;100627.50;5056510;28;791;-30
2021/05/30 03:43:44;;;;;;;;;;;;;;;26.23;35.31;100631.31;5056454;28;793;-30
2021/05/30 03:46:10;;;;;;;;;;;;;;;26.13;35.38;100629.72;5038127;28;975;-30
2021/05/30 03:48:35;;;;;;;;;;;;;;;26.20;34.97;100635.22;5056108;28;1107;-30
2021/05/30 03:51:00;;;;;;;;;;;;;;;26.23;34.95;100625.91;5056515;28;805;-30
2021/05/30 03:53:25;;;;;;;;;;;;;;;26.17;35.13;100624.81;5057693;28;1068;-30
2021/05/30 03:55:51;;;;;;;;;;;;;;;26.19;35.09;100630.84;5060267;28;1905;-29
2021/05/30 03:58:16;;;;;;;;;;;;;;;26.22;35.11;100626.94;5060714;28;772;-30
2021/05/30 04:00:42;;;;;;;;;;;;;;;26.23;34.95;100629.47;5060376;28;840;-31
2021/05/30 04:03:08;;;;;;;;;;;;;;;26.35;34.58;100619.13;5057263;28;944;-30
2021/05/30 04:05:33;;;;;;;;;;;;;;;26.43;34.39;100626.31;5060717;28;800;-29
2021/05/30 04:07:58;;;;;;;;;;;;;;;26.44;34.60;100621.75;5059703;28;793;-30
2021/05/30 04:10:24;;;;;;;;;;;;;;;26.29;34.50;100617.94;5060311;28;796;-29
2021/05/30 04:12:49;;;;;;;;;;;;;;;26.27;35.10;100613.78;5059497;28;1128;-29
2021/05/30 04:15:14;;;;;;;;;;;;;;;26.26;35.46;100617.47;5058703;28;1906;-30
2021/05/30 04:17:40;;;;;;;;;;;;;;;26.29;35.29;100617.13;5056530;28;963;-29
2021/05/30 04:20:07;;;;;;;;;;;;;;;26.27;35.63;100620.00;5058747;28;840;-29
2021/05/30 04:22:33;;;;;;;;;;;;;;;26.39;35.34;100628.53;5058554;28;867;-30
2021/05/30 04:24:58;;;;;;;;;;;;;;;26.37;35.20;100629.75;5058103;28;862;-29
2021/05/30 04:27:23;;;;;;;;;;;;;;;26.38;35.49;100628.72;5058713;28;795;-30
2021/05/30 04:29:49;;;;;;;;;;;;;;;26.37;35.86;100627.88;5058424;28;867;-30
2021/05/30 04:32:14;;;;;;;;;;;;;;;26.37;36.03;100624.34;5057615;28;1010;-30
2021/05/30 04:34:39;;;;;;;;;;;;;;;26.31;36.27;100635.84;5058558;28;1979;-30
2021/05/30 04:37:04;;;;;;;;;;;;;;;26.43;36.19;100638.94;5058207;28;827;-30
2021/05/30 04:39:31;;;;;;;;;;;;;;;26.41;36.68;100631.88;5057395;28;965;-30
2021/05/30 04:41:56;;;;;;;;;;;;;;;26.40;37.04;100638.31;5057943;28;816;-30
2021/05/30 04:44:22;;;;;;;;;;;;;;;26.46;36.78;100642.13;5058279;28;807;-31
2021/05/30 04:46:47;;;;;;;;;;;;;;;26.46;36.87;100638.59;5055883;28;1018;-31
2021/05/30 04:49:12;;;;;;;;;;;;;;;26.45;36.83;100637.75;5058388;28;752;-30
2021/05/30 04:51:38;;;;;;;;;;;;;;;26.40;37.64;100637.47;5057748;28;856;-31
2021/05/30 04:54:03;;;;;;;;;;;;;;;26.46;37.20;100638.59;5058217;28;1969;-29
2021/05/30 04:56:28;;;;;;;;;;;;;;;26.56;36.92;100641.06;5058199;28;776;-29
2021/05/30 04:58:54;;;;;;;;;;;;;;;26.60;36.95;100637.81;5058281;28;840;-29
2021/05/30 05:01:19;;;;;;;;;;;;;;;26.92;36.88;100639.53;5057940;28;804;-29
2021/05/30 05:03:44;;;;;;;;;;;;;;;26.87;37.26;100649.03;5056873;28;971;-27
2021/05/30 05:06:10;;;;;;;;;;;;;;;26.88;37.68;100641.75;5058548;28;779;-29
2021/05/30 05:08:35;;;;;;;;;;;;;;;27.02;37.54;100640.97;5057796;28;740;-30
2021/05/30 05:11:01;;;;;;;;;;;;;;;27.04;37.30;100638.09;5057856;28;829;-29
2021/05/30 05:13:26;;;;;;;;;;;;;;;26.86;37.70;100636.53;5016978;28;1196532;-29
2021/05/30 05:15:52;;;;;;;;;;;;;;;26.87;37.64;100640.94;5058427;28;1917;-29
2021/05/30 05:18:18;;;;;;;;;;;;;;;26.88;37.58;100644.44;5056816;28;1061;-28
2021/05/30 05:20:43;;;;;;;;;;;;;;;26.84;37.91;100651.25;5059369;28;723;-28
2021/05/30 05:23:11;;;;;;;;;;;;;;;26.94;38.03;100649.13;5058843;28;819;-29
2021/05/30 05:25:37;;;;;;;;;;;;;;;27.05;37.58;100647.84;5058760;28;779;-28
2021/05/30 05:28:02;;;;;;;;;;;;;;;27.00;38.23;100645.69;5058897;28;752;-29
2021/05/30 05:30:28;;;;;;;;;;;;;;;27.02;37.93;100661.72;5058711;28;783;-29
2021/05/30 05:32:53;;;;;;;;;;;;;;;27.02;37.87;100662.56;5058241;28;955;-29
2021/05/30 05:35:18;;;;;;;;;;;;;;;26.98;38.31;100663.06;5058645;28;1957;-29
2021/05/30 05:37:43;;;;;;;;;;;;;;;27.03;38.44;100660.69;5058112;28;1523;-29
2021/05/30 05:40:09;;;;;;;;;;;;;;;27.11;38.22;100657.09;5058607;28;842;-29
2021/05/30 05:42:35;;;;;;;;;;;;;;;27.22;38.04;100659.31;5058455;28;813;-29
2021/05/30 05:45:00;;;;;;;;;;;;;;;27.20;38.13;100658.66;5058156;28;849;-29
2021/05/30 05:47:26;;;;;;;;;;;;;;;27.24;38.00;100656.44;5058335;28;1007;-28
2021/05/30 05:49:51;;;;;;;;;;;;;;;27.26;37.94;100659.78;5058503;28;856;-28
2021/05/30 05:52:16;;;;;;;;;;;;;;;27.25;37.93;100667.06;5058009;28;804;-28
2021/05/30 05:54:42;;;;;;;;;;;;;;;27.22;38.25;100664.72;5058348;28;1918;-29
2021/05/30 05:57:07;;;;;;;;;;;;;;;27.23;37.99;100663.69;5058014;28;968;-28
2021/05/30 05:59:32;;;;;;;;;;;;;;;27.24;37.79;100669.94;5057746;28;800;-28
2021/05/30 06:01:57;;;;;;;;;;;;;;;27.25;38.16;100668.91;5057676;28;951;-29
2021/05/30 06:04:23;;;;;;;;;;;;;;;27.20;38.04;100666.78;5058228;28;760;-29
2021/05/30 06:06:48;;;;;;;;;;;;;;;27.27;37.95;100666.88;5057590;28;999;-27
2021/05/30 06:09:13;;;;;;;;;;;;;;;27.29;38.08;100670.22;5058121;28;752;-28
2021/05/30 06:11:39;;;;;;;;;;;;;;;27.31;37.82;100670.84;5057851;28;1120;-29
2021/05/30 06:14:04;;;;;;;;;;;;;;;27.38;37.67;100671.78;5057333;28;1913;-30
2021/05/30 06:16:29;;;;;;;;;;;;;;;27.38;37.73;100666.41;5057303;28;810;-30
2021/05/30 06:18:55;;;;;;;;;;;;;;;27.36;37.67;100673.84;5055584;28;967;-29
2021/05/30 06:21:20;;;;;;;;;;;;;;;27.40;37.53;100677.00;5057501;28;814;-29
2021/05/30 06:23:45;;;;;;;;;;;;;;;27.44;37.59;100680.19;5058224;28;780;-29
2021/05/30 06:26:11;;;;;;;;;;;;;;;27.40;37.75;100679.72;5057522;28;787;-30
2021/05/30 06:28:36;;;;;;;;;;;;;;;27.45;37.55;100680.00;5057769;28;744;-29
2021/05/30 06:31:02;;;;;;;;;;;;;;;27.46;37.16;100672.75;5058209;28;733;-28
2021/05/30 06:33:27;;;;;;;;;;;;;;;27.38;37.34;100679.91;5057060;28;1083;-28
2021/05/30 06:35:52;;;;;;;;;;;;;;;27.26;37.35;100676.81;5057543;28;2058;-28
2021/05/30 06:38:17;;;;;;;;;;;;;;;27.26;37.08;100686.78;5057167;28;824;-28
2021/05/30 06:40:43;;;;;;;;;;;;;;;27.30;36.51;100684.53;5057465;28;764;-29
2021/05/30 06:43:10;;;;;;;;;;;;;;;27.33;36.42;100687.72;5057388;28;720;-30
2021/05/30 06:45:35;;;;;;;;;;;;;;;27.29;35.42;100693.69;5056978;28;752;-29
2021/05/30 06:48:01;;;;;;;;;;;;;;;27.23;35.46;100695.25;5056870;28;959;-29
2021/05/30 06:50:26;;;;;;;;;;;;;;;26.50;34.73;100692.00;5057387;28;807;-31
2021/05/30 06:52:52;;;;;;;;;;;;;;;26.20;35.77;100696.38;5056316;28;819;-32
2021/05/30 06:55:20;;;;;;;;;;;;;;;26.23;35.35;100696.88;5057286;28;1906;-31
2021/05/30 06:57:45;;;;;;;;;;;;;;;26.76;35.16;100698.03;5057179;28;833;-30
2021/05/30 07:00:11;;;;;;;;;;;;;;;26.98;36.28;100698.16;5056719;28;851;-29
2021/05/30 07:02:36;;;;;;;;;;;;;;;27.19;35.64;100700.22;5056613;28;932;-27
2021/05/30 07:05:02;;;;;;;;;;;;;;;27.31;36.70;100692.47;5057059;28;863;-30
2021/05/30 07:07:27;;;;;;;;;;;;;;;27.30;37.09;100687.25;5056624;28;760;-31
2021/05/30 07:09:52;;;;;;;;;;;;;;;27.24;36.91;100686.97;5056689;28;843;-30
2021/05/30 07:12:18;;;;;;;;;;;;;;;27.34;36.47;100691.28;5056451;28;1049;-29
2021/05/30 07:14:43;;;;;;;;;;;;;;;27.22;37.38;100691.72;5056459;28;1906;-28
2021/05/30 07:17:08;;;;;;;;;;;;;;;27.19;35.21;100691.25;5052039;28;1034;-29
2021/05/30 07:19:33;;;;;;;;;;;;;;;27.15;35.96;100698.88;5036755;28;749;-29
2021/05/30 07:21:59;;;;;;;;;;;;;;;27.15;34.96;100701.59;5036458;28;792;-30
2021/05/30 07:24:24;;;;;;;;;;;;;;;27.15;35.95;100701.59;5037215;28;810;-30
2021/05/30 07:26:49;;;;;;;;;;;;;;;27.04;35.27;100702.03;5036707;28;875;-30
2021/05/30 07:29:16;;;;;;;;;;;;;;;27.05;36.73;100704.56;5036975;28;812;-31
2021/05/30 07:31:42;;;;;;;;;;;;;;;27.07;37.04;100707.91;5037336;28;1003;-29
2021/05/30 07:34:07;;;;;;;;;;;;;;;27.04;37.11;100711.00;5056394;28;1961;-30
2021/05/30 07:36:32;;;;;;;;;;;;;;;27.03;36.43;100709.28;5056203;28;805;-28
2021/05/30 07:38:57;;;;;;;;;;;;;;;27.02;36.72;100715.72;5056736;28;830;-31
2021/05/30 07:41:23;;;;;;;;;;;;;;;27.05;36.69;100718.06;5056344;28;767;-30
2021/05/30 07:43:48;;;;;;;;;;;;;;;27.12;37.28;100710.06;5056589;28;822;-30
2021/05/30 07:46:13;;;;;;;;;;;;;;;27.17;37.32;100723.00;5056686;28;804;-30
2021/05/30 07:48:39;;;;;;;;;;;;;;;27.20;36.67;100715.38;5055885;28;991;-32
2021/05/30 07:51:04;;;;;;;;;;;;;;;27.28;36.97;100717.16;5056245;28;748;-31
2021/05/30 07:53:29;;;;;;;;;;;;;;;27.25;37.11;100720.22;5056455;28;745;-32
2021/05/30 07:55:55;;;;;;;;;;;;;;;27.12;35.73;100716.31;5056258;28;1957;-31
2021/05/30 07:58:20;;;;;;;;;;;;;;;27.16;35.01;100721.34;5056243;28;819;-32
2021/05/30 08:00:45;;;;;;;;;;;;;;;27.13;35.97;100712.56;5056783;28;740;-30
2021/05/30 08:03:10;;;;;;;;;;;;;;;27.10;36.09;100721.03;5055403;28;1007;-31
2021/05/30 08:05:36;;;;;;;;;;;;;;;27.22;36.21;100715.19;5056118;28;832;-31
2021/05/30 08:08:01;;;;;;;;;;;;;;;27.19;35.68;100711.00;5056516;28;755;-31
2021/05/30 08:10:28;;;;;;;;;;;;;;;27.12;35.00;100718.16;5056178;28;895;-32
2021/05/30 08:12:54;;;;;;;;;;;;;;;27.16;34.74;100715.94;5055986;28;1116;-29
2021/05/30 08:15:19;;;;;;;;;;;;;;;27.20;35.18;100720.78;5056321;28;1969;-29
2021/05/30 08:17:45;;;;;;;;;;;;;;;27.18;34.85;100712.00;5053994;28;1017;-30
2021/05/30 08:20:11;;;;;;;;;;;;;;;27.21;34.30;100718.94;5055948;28;780;-30
2021/05/30 08:22:36;;;;;;;;;;;;;;;27.24;34.14;100713.97;5055946;28;812;-30
2021/05/30 08:25:01;;;;;;;;;;;;;;;27.18;34.63;100725.50;5056124;28;823;-31
2021/05/30 08:27:27;;;;;;;;;;;;;;;27.23;34.12;100727.66;5056003;28;922;-31
2021/05/30 08:29:52;;;;;;;;;;;;;;;27.30;34.65;100730.47;5055821;28;864;-30
2021/05/30 08:32:18;;;;;;;;;;;;;;;27.29;34.13;100737.75;5055531;28;943;-30
2021/05/30 08:34:45;;;;;;;;;;;;;;;27.29;33.92;100742.31;5055422;28;1897;-30
2021/05/30 08:37:10;;;;;;;;;;;;;;;27.23;34.09;100735.75;5055593;28;871;-31
2021/05/30 08:39:35;;;;;;;;;;;;;;;26.81;34.18;100732.59;5059008;28;942;-30
2021/05/30 08:42:01;;;;;;;;;;;;;;;26.59;34.58;100730.53;5059800;28;779;-29
2021/05/30 08:44:26;;;;;;;;;;;;;;;26.72;34.33;100727.25;5040911;28;885;-29
2021/05/30 08:46:51;;;;;;;;;;;;;;;26.81;34.52;100716.38;5058878;28;1500;-30
2021/05/30 08:49:17;;;;;;;;;;;;;;;26.75;34.56;100715.25;5059295;28;750;-29
2021/05/30 08:51:42;;;;;;;;;;;;;;;26.81;34.79;100713.69;5059265;28;829;-30
2021/05/30 08:54:07;;;;;;;;;;;;;;;26.81;34.67;100717.22;5059576;28;1961;-29
2021/05/30 08:56:33;;;;;;;;;;;;;;;26.76;34.77;100711.50;5059692;28;771;-30
2021/05/30 08:58:58;;;;;;;;;;;;;;;26.81;35.09;100705.59;5059387;28;740;-30
2021/05/30 09:01:25;;;;;;;;;;;;;;;26.81;34.93;100709.13;5059105;28;895;-29
2021/05/30 09:03:54;;;;;;;;;;;;;;;26.80;34.31;100707.44;5058958;28;947;-29
2021/05/30 09:06:20;;;;;;;;;;;;;;;26.81;34.54;100701.03;5059321;28;744;-29
2021/05/30 09:08:45;;;;;;;;;;;;;;;26.78;34.94;100714.88;5059372;28;733;-30
2021/05/30 09:11:10;;;;;;;;;;;;;;;26.76;34.14;100703.41;5041469;28;1291;-29
2021/05/30 09:13:54;;;;;;;;;;;;;;;26.75;34.21;100708.00;5058664;28;1109;-29
2021/05/30 09:16:21;;;;;;;;;;;;;;;26.84;34.47;100705.22;5059467;28;756;-30
2021/05/30 09:18:47;;;;;;;;;;;;;;;26.80;33.76;100707.44;5057739;28;931;-29
2021/05/30 09:21:14;;;;;;;;;;;;;;;26.82;34.25;100708.13;5058875;28;859;-29
2021/05/30 09:23:42;;;;;;;;;;;;;;;26.82;34.28;100704.56;5058757;28;1462;-29
2021/05/30 09:26:09;;;;;;;;;;;;;;;26.86;33.97;100708.59;5058416;28;828;-29
2021/05/30 09:28:34;;;;;;;;;;;;;;;26.88;33.93;100704.69;5058824;28;796;-29
2021/05/30 09:31:00;;;;;;;;;;;;;;;26.84;34.26;100706.03;5040908;28;769;-30
2021/05/30 09:33:28;;;;;;;;;;;;;;;26.86;33.74;100697.81;5058261;28;991;-29
2021/05/30 09:35:54;;;;;;;;;;;;;;;26.88;34.32;100706.53;5040320;28;1902;-29
2021/05/30 09:38:23;;;;;;;;;;;;;;;26.92;33.93;100694.34;5058663;28;752;-29
2021/05/30 09:40:52;;;;;;;;;;;;;;;26.99;33.42;100692.59;5058914;28;764;-30
2021/05/30 09:43:28;;;;;;;;;;;;;;;26.98;33.16;100693.63;5058637;28;783;-29
2021/05/30 09:45:56;;;;;;;;;;;;;;;27.03;34.26;100685.00;5058460;28;824;-29
2021/05/30 09:48:21;;;;;;;;;;;;;;;27.02;36.50;100688.72;5057737;28;955;-30
2021/05/30 09:51:02;;;;;;;;;;;;;;;26.98;34.93;100692.78;5057246;28;732;-29
2021/05/30 09:53:31;;;;;;;;;;;;;;;27.07;36.44;100689.03;5042666;28;868;-30
2021/05/30 09:55:57;;;;;;;;;;;;;;;27.12;35.39;100693.84;5058054;28;1898;-29
2021/05/30 09:58:24;;;;;;;;;;;;;;;27.14;36.39;100684.53;5058109;28;844;-29
2021/05/30 10:00:52;;;;;;;;;;;;;;;27.21;34.37;100690.03;5058429;28;758;-30
2021/05/30 10:03:20;;;;;;;;;;;;;;;27.19;34.10;100684.00;5057581;28;964;-30
2021/05/30 10:05:45;;;;;;;;;;;;;;;27.31;34.52;100688.94;5057949;28;788;-31
2021/05/30 10:08:11;;;;;;;;;;;;;;;27.48;34.18;100681.47;5057968;28;823;-30
2021/05/30 10:10:36;;;;;;;;;;;;;;;27.73;33.53;100679.34;5057614;28;1443;-30
2021/05/30 10:13:02;;;;;;;;;;;;;;;27.96;33.86;100681.06;5057757;28;1112;-31
2021/05/30 10:15:27;;;;;;;;;;;;;;;27.85;34.20;100677.00;5057511;28;1917;-30
2021/05/30 10:17:52;;;;;;;;;;;;;;;27.84;33.78;100678.00;5055885;28;955;-30
2021/05/30 10:20:19;;;;;;;;;;;;;;;27.73;33.55;100673.94;5057479;28;886;-30
2021/05/30 10:22:47;;;;;;;;;;;;;;;27.67;32.92;100677.38;5057539;28;802;-30
2021/05/30 10:25:12;;;;;;;;;;;;;;;27.63;32.33;100684.16;5039768;28;839;-29
2021/05/30 10:27:38;;;;;;;;;;;;;;;27.77;32.57;100665.44;5022922;28;1293;-30
2021/05/30 10:30:03;;;;;;;;;;;;;;;27.73;31.60;100679.34;5057333;28;784;-30
2021/05/30 10:32:29;;;;;;;;;;;;;;;27.70;32.17;100674.31;5054008;28;893;-28
2021/05/30 10:35:17;;;;;;;;;;;;;;;27.72;31.59;100677.69;5057113;28;1980;-31
2021/05/30 10:37:46;;;;;;;;;;;;;;;27.74;30.07;100678.31;5044425;28;1244;-30
2021/05/30 10:40:20;;;;;;;;;;;;;;;27.86;30.19;100678.66;5057266;28;1467;-30
2021/05/30 10:43:05;;;;;;;;;;;;;;;27.93;31.86;100683.28;5057442;28;830;-31
2021/05/30 10:45:31;;;;;;;;;;;;;;;28.27;31.40;100681.81;5057015;28;1141;-31
2021/05/30 10:48:02;;;;;;;;;;;;;;;28.46;30.91;100693.06;5056583;28;944;-30
2021/05/30 10:50:32;;;;;;;;;;;;;;;28.53;30.95;100685.81;5057397;28;803;-31
2021/05/30 10:52:57;;;;;;;;;;;;;;;28.66;31.04;100682.38;5056940;28;891;-31
2021/05/30 10:55:28;;;;;;;;;;;;;;;28.78;30.70;100682.69;5056715;28;1974;-31
2021/05/30 10:57:54;;;;;;;;;;;;;;;28.89;30.67;100689.47;5057209;28;752;-31
2021/05/30 11:00:19;;;;;;;;;;;;;;;28.97;30.86;100688.50;5057256;28;807;-31
2021/05/30 11:05:47;;;;;;;;;;;;;;;28.95;31.01;100677.84;5057407;28;740;-31
2021/05/30 11:08:33;;;;;;;;;;;;;;;29.00;31.20;100679.13;5056607;28;855;-30
2021/05/30 11:11:29;;;;;;;;;;;;;;;29.13;30.93;100675.69;5056274;28;830;-30
2021/05/30 11:13:58;;;;;;;;;;;;;;;29.21;31.26;100676.34;5028056;28;1973;-29
2021/05/30 11:16:27;;;;;;;;;;;;;;;29.27;31.05;100680.16;5036814;28;753;-30
2021/05/30 11:18:56;;;;;;;;;;;;;;;29.25;31.12;100675.94;5055185;28;1010;-28
2021/05/30 11:21:25;;;;;;;;;;;;;;;28.80;33.48;100668.97;5056760;28;775;-29
2021/05/30 11:23:50;;;;;;;;;;;;;;;28.44;32.58;100671.59;5056322;28;1504;-28
2021/05/30 11:26:15;;;;;;;;;;;;;;;28.39;32.52;100674.06;5038716;28;769;-28
2021/05/30 11:28:45;;;;;;;;;;;;;;;28.28;31.36;100675.34;5057403;28;816;-31
2021/05/30 11:31:10;;;;;;;;;;;;;;;28.33;30.83;100672.94;5056556;28;760;-30
2021/05/30 11:33:42;;;;;;;;;;;;;;;28.44;31.23;100674.31;5054909;28;988;-29
2021/05/30 11:36:28;;;;;;;;;;;;;;;28.54;30.89;100679.38;5056471;28;1981;-31
2021/05/30 11:38:55;;;;;;;;;;;;;;;28.60;30.18;100680.47;5055893;28;1265;-30
2021/05/30 11:41:24;;;;;;;;;;;;;;;28.71;30.39;100671.81;5056185;28;827;-30
2021/05/30 11:43:52;;;;;;;;;;;;;;;28.71;30.91;100676.41;5056308;28;725;-31
2021/05/30 11:46:18;;;;;;;;;;;;;;;28.76;29.86;100673.94;5056603;28;775;-31
2021/05/30 11:48:43;;;;;;;;;;;;;;;28.75;28.34;100680.38;5055761;28;999;-30
2021/05/30 11:51:08;;;;;;;;;;;;;;;28.80;26.71;100679.78;5056254;28;764;-29
2021/05/30 11:53:34;;;;;;;;;;;;;;;28.74;27.12;100681.44;5056162;28;839;-30
2021/05/30 11:56:00;;;;;;;;;;;;;;;28.85;26.92;100672.75;5056288;28;1913;-31
2021/05/30 11:58:25;;;;;;;;;;;;;;;28.84;27.10;100673.78;5056335;28;713;-30
2021/05/30 12:00:54;;;;;;;;;;;;;;;28.79;27.23;100678.13;5056361;28;751;-30
2021/05/30 12:03:19;;;;;;;;;;;;;;;28.81;26.26;100663.34;5055739;28;940;-31
2021/05/30 12:05:45;;;;;;;;;;;;;;;28.84;26.41;100672.97;5056158;28;1589;-30
2021/05/30 12:08:13;;;;;;;;;;;;;;;28.79;26.17;100673.56;5056324;28;779;-30
2021/05/30 12:10:52;;;;;;;;;;;;;;;28.72;26.25;100669.94;5055908;28;853;-29
2021/05/30 12:13:27;;;;;;;;;;;;;;;28.67;26.46;100667.00;5056501;28;1160;-29
2021/05/30 12:15:52;;;;;;;;;;;;;;;28.82;26.64;100658.78;5060219;28;1918;-30
2021/05/30 12:18:17;;;;;;;;;;;;;;;28.93;26.83;100651.97;5059357;28;1013;-30
2021/05/30 12:20:44;;;;;;;;;;;;;;;28.97;26.13;100653.28;5060466;28;795;-29
2021/05/30 12:23:13;;;;;;;;;;;;;;;28.96;26.27;100646.19;5060092;28;831;-29
2021/05/30 12:25:51;;;;;;;;;;;;;;;29.03;26.38;100633.53;5059348;28;799;-29
2021/05/30 12:28:17;;;;;;;;;;;;;;;29.07;26.58;100642.09;5060049;28;754;-29
2021/05/30 12:30:42;;;;;;;;;;;;;;;29.09;26.32;100646.28;5041666;28;820;-31
2021/05/30 12:33:07;;;;;;;;;;;;;;;29.09;26.20;100646.28;5028629;28;1519;-29
2021/05/30 12:35:42;;;;;;;;;;;;;;;29.01;26.58;100643.72;5039415;28;1902;-30
2021/05/30 12:38:10;;;;;;;;;;;;;;;29.15;26.53;100630.25;5039989;28;758;-30
2021/05/30 12:40:35;;;;;;;;;;;;;;;29.09;30.12;100638.16;5039546;28;804;-28
2021/05/30 12:43:01;;;;;;;;;;;;;;;28.88;29.04;100635.50;5041243;28;829;-29
2021/05/30 12:45:27;;;;;;;;;;;;;;;28.93;30.06;100638.44;5059430;28;946;-30
2021/05/30 12:47:53;;;;;;;;;;;;;;;28.94;30.56;100634.72;5049933;28;1055;-30
2021/05/30 12:50:18;;;;;;;;;;;;;;;28.91;30.91;100635.91;5059304;28;875;-30
2021/05/30 12:52:47;;;;;;;;;;;;;;;28.89;31.10;100638.00;5059280;28;760;-29
2021/05/30 12:55:12;;;;;;;;;;;;;;;28.99;31.05;100632.28;5058840;28;1898;-32